sensor_id;sensor_type;location;lat;lon;timestamp;P1;durP1;ratioP1;P2;durP2;ratioP2
23470;SDS011;11908;50.806;4.424;2023-11-22T00:00:15;40.30;;;24.38;;
23470;SDS011;11908;50.806;4.424;2023-11-22T00:02:41;37.50;;;25.10;;
23470;SDS011;11908;50.806;4.424;2023-11-22T00:05:07;36.88;;;24.73;;
23470;SDS011;11908;50.806;4.424;2023-11-22T00:07:34;38.90;;;24.65;;
23470;SDS011;11908;50.806;4.424;2023-11-22T00:09:59;40.90;;;25.98;;
23470;SDS011;11908;50.806;4.424;2023-11-22T00:12:26;39.38;;;25.17;;
23470;SDS011;11908;50.806;4.424;2023-11-22T00:14:53;42.90;;;25.70;;
23470;SDS011;11908;50.806;4.424;2023-11-22T00:17:19;38.75;;;25.95;;
23470;SDS011;11908;50.806;4.424;2023-11-22T00:19:45;42.90;;;25.77;;
23470;SDS011;11908;50.806;4.424;2023-11-22T00:22:11;40.35;;;25.65;;
23470;SDS011;11908;50.806;4.424;2023-11-22T00:24:40;40.10;;;24.60;;
23470;SDS011;11908;50.806;4.424;2023-11-22T00:27:05;43.00;;;27.67;;
23470;SDS011;11908;50.806;4.424;2023-11-22T00:29:32;44.85;;;26.05;;
23470;SDS011;11908;50.806;4.424;2023-11-22T00:31:57;45.30;;;27.17;;
23470;SDS011;11908;50.806;4.424;2023-11-22T00:34:23;45.80;;;26.98;;
23470;SDS011;11908;50.806;4.424;2023-11-22T00:36:49;46.05;;;27.33;;
23470;SDS011;11908;50.806;4.424;2023-11-22T00:39:16;39.95;;;25.73;;
23470;SDS011;11908;50.806;4.424;2023-11-22T00:41:42;39.17;;;25.98;;
23470;SDS011;11908;50.806;4.424;2023-11-22T00:44:09;42.92;;;25.80;;
23470;SDS011;11908;50.806;4.424;2023-11-22T00:46:35;40.90;;;25.63;;
23470;SDS011;11908;50.806;4.424;2023-11-22T00:49:02;46.10;;;27.52;;
23470;SDS011;11908;50.806;4.424;2023-11-22T00:51:29;40.97;;;26.48;;
23470;SDS011;11908;50.806;4.424;2023-11-22T00:53:56;47.95;;;27.33;;
23470;SDS011;11908;50.806;4.424;2023-11-22T00:56:25;46.83;;;28.08;;
23470;SDS011;11908;50.806;4.424;2023-11-22T00:58:51;44.58;;;27.48;;
23470;SDS011;11908;50.806;4.424;2023-11-22T01:01:18;48.85;;;29.95;;
23470;SDS011;11908;50.806;4.424;2023-11-22T01:03:47;47.40;;;28.50;;
23470;SDS011;11908;50.806;4.424;2023-11-22T01:06:13;49.13;;;30.30;;
23470;SDS011;11908;50.806;4.424;2023-11-22T01:08:39;51.83;;;28.83;;
23470;SDS011;11908;50.806;4.424;2023-11-22T01:11:05;51.83;;;28.55;;
23470;SDS011;11908;50.806;4.424;2023-11-22T01:13:31;45.35;;;28.20;;
23470;SDS011;11908;50.806;4.424;2023-11-22T01:16:09;52.05;;;28.55;;
23470;SDS011;11908;50.806;4.424;2023-11-22T01:18:35;46.58;;;28.02;;
23470;SDS011;11908;50.806;4.424;2023-11-22T01:21:01;52.60;;;30.17;;
23470;SDS011;11908;50.806;4.424;2023-11-22T01:23:28;45.13;;;26.83;;
23470;SDS011;11908;50.806;4.424;2023-11-22T01:25:53;48.85;;;28.40;;
23470;SDS011;11908;50.806;4.424;2023-11-22T01:28:20;47.40;;;27.90;;
23470;SDS011;11908;50.806;4.424;2023-11-22T01:30:48;45.55;;;28.10;;
23470;SDS011;11908;50.806;4.424;2023-11-22T01:33:14;48.08;;;28.25;;
23470;SDS011;11908;50.806;4.424;2023-11-22T01:35:45;44.05;;;26.40;;
23470;SDS011;11908;50.806;4.424;2023-11-22T01:38:11;50.00;;;27.73;;
23470;SDS011;11908;50.806;4.424;2023-11-22T01:40:43;47.72;;;28.35;;
23470;SDS011;11908;50.806;4.424;2023-11-22T01:43:16;44.72;;;27.35;;
23470;SDS011;11908;50.806;4.424;2023-11-22T01:45:43;46.25;;;27.42;;
23470;SDS011;11908;50.806;4.424;2023-11-22T01:48:09;46.13;;;25.73;;
23470;SDS011;11908;50.806;4.424;2023-11-22T01:50:38;47.58;;;26.98;;
23470;SDS011;11908;50.806;4.424;2023-11-22T01:53:06;41.47;;;26.27;;
23470;SDS011;11908;50.806;4.424;2023-11-22T01:55:33;45.47;;;27.42;;
23470;SDS011;11908;50.806;4.424;2023-11-22T01:57:59;45.72;;;26.85;;
23470;SDS011;11908;50.806;4.424;2023-11-22T02:00:27;48.47;;;27.20;;
23470;SDS011;11908;50.806;4.424;2023-11-22T02:05:26;45.58;;;26.50;;
23470;SDS011;11908;50.806;4.424;2023-11-22T02:07:51;44.65;;;27.38;;
23470;SDS011;11908;50.806;4.424;2023-11-22T02:10:18;43.58;;;25.42;;
23470;SDS011;11908;50.806;4.424;2023-11-22T02:12:43;46.45;;;26.80;;
23470;SDS011;11908;50.806;4.424;2023-11-22T02:15:09;51.45;;;26.75;;
23470;SDS011;11908;50.806;4.424;2023-11-22T02:17:35;53.13;;;27.02;;
23470;SDS011;11908;50.806;4.424;2023-11-22T02:20:01;43.67;;;25.08;;
23470;SDS011;11908;50.806;4.424;2023-11-22T02:22:31;42.45;;;26.17;;
23470;SDS011;11908;50.806;4.424;2023-11-22T02:24:57;50.13;;;28.38;;
23470;SDS011;11908;50.806;4.424;2023-11-22T02:27:22;51.28;;;27.23;;
23470;SDS011;11908;50.806;4.424;2023-11-22T02:29:48;44.28;;;25.85;;
23470;SDS011;11908;50.806;4.424;2023-11-22T02:32:15;48.25;;;27.23;;
23470;SDS011;11908;50.806;4.424;2023-11-22T02:34:40;43.75;;;25.38;;
23470;SDS011;11908;50.806;4.424;2023-11-22T02:37:06;42.22;;;25.27;;
23470;SDS011;11908;50.806;4.424;2023-11-22T02:39:53;46.35;;;25.67;;
23470;SDS011;11908;50.806;4.424;2023-11-22T02:42:33;44.00;;;26.80;;
23470;SDS011;11908;50.806;4.424;2023-11-22T02:45:00;44.67;;;26.88;;
23470;SDS011;11908;50.806;4.424;2023-11-22T02:47:26;49.85;;;27.48;;
23470;SDS011;11908;50.806;4.424;2023-11-22T02:49:52;47.08;;;27.85;;
23470;SDS011;11908;50.806;4.424;2023-11-22T02:52:19;51.05;;;28.63;;
23470;SDS011;11908;50.806;4.424;2023-11-22T02:54:45;46.10;;;26.98;;
23470;SDS011;11908;50.806;4.424;2023-11-22T02:57:11;44.70;;;27.02;;
23470;SDS011;11908;50.806;4.424;2023-11-22T02:59:37;44.20;;;27.35;;
23470;SDS011;11908;50.806;4.424;2023-11-22T03:02:06;44.70;;;26.13;;
23470;SDS011;11908;50.806;4.424;2023-11-22T03:04:32;41.53;;;25.33;;
23470;SDS011;11908;50.806;4.424;2023-11-22T03:06:59;45.55;;;26.35;;
23470;SDS011;11908;50.806;4.424;2023-11-22T03:09:24;45.78;;;27.17;;
23470;SDS011;11908;50.806;4.424;2023-11-22T03:11:51;46.22;;;26.80;;
23470;SDS011;11908;50.806;4.424;2023-11-22T03:14:19;45.78;;;25.90;;
23470;SDS011;11908;50.806;4.424;2023-11-22T03:16:47;43.25;;;25.88;;
23470;SDS011;11908;50.806;4.424;2023-11-22T03:19:13;43.38;;;24.77;;
23470;SDS011;11908;50.806;4.424;2023-11-22T03:21:39;41.75;;;25.27;;
23470;SDS011;11908;50.806;4.424;2023-11-22T03:24:06;41.05;;;24.75;;
23470;SDS011;11908;50.806;4.424;2023-11-22T03:26:33;39.22;;;23.58;;
23470;SDS011;11908;50.806;4.424;2023-11-22T03:28:59;39.53;;;24.42;;
23470;SDS011;11908;50.806;4.424;2023-11-22T03:31:26;39.72;;;23.70;;
23470;SDS011;11908;50.806;4.424;2023-11-22T03:33:52;37.65;;;23.95;;
23470;SDS011;11908;50.806;4.424;2023-11-22T03:36:19;37.88;;;23.73;;
23470;SDS011;11908;50.806;4.424;2023-11-22T03:38:45;37.75;;;24.05;;
23470;SDS011;11908;50.806;4.424;2023-11-22T03:41:11;33.75;;;22.80;;
23470;SDS011;11908;50.806;4.424;2023-11-22T03:43:37;39.25;;;24.60;;
23470;SDS011;11908;50.806;4.424;2023-11-22T03:46:03;38.80;;;23.55;;
23470;SDS011;11908;50.806;4.424;2023-11-22T03:48:28;39.40;;;23.85;;
23470;SDS011;11908;50.806;4.424;2023-11-22T03:50:54;36.67;;;23.38;;
23470;SDS011;11908;50.806;4.424;2023-11-22T03:53:20;35.88;;;23.02;;
23470;SDS011;11908;50.806;4.424;2023-11-22T03:55:46;37.45;;;22.50;;
23470;SDS011;11908;50.806;4.424;2023-11-22T03:58:13;33.38;;;21.77;;
23470;SDS011;11908;50.806;4.424;2023-11-22T04:00:38;37.85;;;23.55;;
23470;SDS011;11908;50.806;4.424;2023-11-22T04:03:04;36.15;;;21.45;;
23470;SDS011;11908;50.806;4.424;2023-11-22T04:05:30;40.78;;;22.70;;
23470;SDS011;11908;50.806;4.424;2023-11-22T04:07:55;37.17;;;23.35;;
23470;SDS011;11908;50.806;4.424;2023-11-22T04:10:21;36.53;;;23.25;;
23470;SDS011;11908;50.806;4.424;2023-11-22T04:12:47;37.72;;;22.17;;
23470;SDS011;11908;50.806;4.424;2023-11-22T04:15:13;32.92;;;21.75;;
23470;SDS011;11908;50.806;4.424;2023-11-22T04:17:39;31.35;;;21.67;;
23470;SDS011;11908;50.806;4.424;2023-11-22T04:20:06;35.05;;;22.40;;
23470;SDS011;11908;50.806;4.424;2023-11-22T04:22:35;39.50;;;22.67;;
23470;SDS011;11908;50.806;4.424;2023-11-22T04:25:10;33.60;;;22.92;;
23470;SDS011;11908;50.806;4.424;2023-11-22T04:27:38;35.40;;;21.20;;
23470;SDS011;11908;50.806;4.424;2023-11-22T04:30:05;35.90;;;22.35;;
23470;SDS011;11908;50.806;4.424;2023-11-22T04:32:33;32.78;;;21.52;;
23470;SDS011;11908;50.806;4.424;2023-11-22T04:35:01;32.90;;;20.50;;
23470;SDS011;11908;50.806;4.424;2023-11-22T04:37:29;34.72;;;21.38;;
23470;SDS011;11908;50.806;4.424;2023-11-22T04:39:57;36.28;;;22.13;;
23470;SDS011;11908;50.806;4.424;2023-11-22T04:42:22;32.40;;;21.02;;
23470;SDS011;11908;50.806;4.424;2023-11-22T04:44:48;32.42;;;21.30;;
23470;SDS011;11908;50.806;4.424;2023-11-22T04:47:14;34.40;;;21.88;;
23470;SDS011;11908;50.806;4.424;2023-11-22T04:49:40;35.85;;;22.92;;
23470;SDS011;11908;50.806;4.424;2023-11-22T04:52:05;35.08;;;21.77;;
23470;SDS011;11908;50.806;4.424;2023-11-22T04:54:31;36.92;;;23.17;;
23470;SDS011;11908;50.806;4.424;2023-11-22T04:56:58;37.03;;;22.63;;
23470;SDS011;11908;50.806;4.424;2023-11-22T04:59:23;35.97;;;23.63;;
23470;SDS011;11908;50.806;4.424;2023-11-22T05:01:49;39.40;;;23.52;;
23470;SDS011;11908;50.806;4.424;2023-11-22T05:04:15;37.00;;;24.73;;
23470;SDS011;11908;50.806;4.424;2023-11-22T05:06:40;46.03;;;24.52;;
23470;SDS011;11908;50.806;4.424;2023-11-22T05:09:08;38.90;;;24.17;;
23470;SDS011;11908;50.806;4.424;2023-11-22T05:11:35;36.78;;;23.90;;
23470;SDS011;11908;50.806;4.424;2023-11-22T05:14:01;36.20;;;22.70;;
23470;SDS011;11908;50.806;4.424;2023-11-22T05:16:27;36.55;;;23.70;;
23470;SDS011;11908;50.806;4.424;2023-11-22T05:18:53;40.22;;;23.85;;
23470;SDS011;11908;50.806;4.424;2023-11-22T05:21:18;38.42;;;24.38;;
23470;SDS011;11908;50.806;4.424;2023-11-22T05:23:44;38.63;;;23.42;;
23470;SDS011;11908;50.806;4.424;2023-11-22T05:26:10;44.38;;;24.83;;
23470;SDS011;11908;50.806;4.424;2023-11-22T05:28:35;40.97;;;24.75;;
23470;SDS011;11908;50.806;4.424;2023-11-22T05:31:01;39.15;;;23.33;;
23470;SDS011;11908;50.806;4.424;2023-11-22T05:33:27;38.47;;;23.90;;
23470;SDS011;11908;50.806;4.424;2023-11-22T05:35:53;45.95;;;23.98;;
23470;SDS011;11908;50.806;4.424;2023-11-22T05:38:19;41.00;;;24.85;;
23470;SDS011;11908;50.806;4.424;2023-11-22T05:40:44;42.92;;;25.35;;
23470;SDS011;11908;50.806;4.424;2023-11-22T05:43:10;36.15;;;22.80;;
23470;SDS011;11908;50.806;4.424;2023-11-22T05:45:36;37.33;;;23.25;;
23470;SDS011;11908;50.806;4.424;2023-11-22T05:48:01;39.20;;;25.65;;
23470;SDS011;11908;50.806;4.424;2023-11-22T05:50:27;38.60;;;23.55;;
23470;SDS011;11908;50.806;4.424;2023-11-22T05:52:53;36.88;;;23.00;;
23470;SDS011;11908;50.806;4.424;2023-11-22T05:55:18;38.65;;;22.25;;
23470;SDS011;11908;50.806;4.424;2023-11-22T05:57:44;37.53;;;22.48;;
23470;SDS011;11908;50.806;4.424;2023-11-22T06:00:10;36.00;;;22.10;;
23470;SDS011;11908;50.806;4.424;2023-11-22T06:02:37;36.92;;;23.17;;
23470;SDS011;11908;50.806;4.424;2023-11-22T06:05:03;36.50;;;23.30;;
23470;SDS011;11908;50.806;4.424;2023-11-22T06:07:30;34.10;;;22.23;;
23470;SDS011;11908;50.806;4.424;2023-11-22T06:09:56;36.00;;;21.85;;
23470;SDS011;11908;50.806;4.424;2023-11-22T06:12:22;34.45;;;21.48;;
23470;SDS011;11908;50.806;4.424;2023-11-22T06:14:48;35.50;;;22.05;;
23470;SDS011;11908;50.806;4.424;2023-11-22T06:17:14;42.47;;;24.00;;
23470;SDS011;11908;50.806;4.424;2023-11-22T06:19:40;37.75;;;22.23;;
23470;SDS011;11908;50.806;4.424;2023-11-22T06:22:06;32.72;;;21.60;;
23470;SDS011;11908;50.806;4.424;2023-11-22T06:24:32;36.40;;;22.48;;
23470;SDS011;11908;50.806;4.424;2023-11-22T06:27:01;34.97;;;21.48;;
23470;SDS011;11908;50.806;4.424;2023-11-22T06:29:27;35.30;;;21.92;;
23470;SDS011;11908;50.806;4.424;2023-11-22T06:31:54;34.25;;;21.38;;
23470;SDS011;11908;50.806;4.424;2023-11-22T06:34:19;36.00;;;22.90;;
23470;SDS011;11908;50.806;4.424;2023-11-22T06:36:45;35.38;;;21.60;;
23470;SDS011;11908;50.806;4.424;2023-11-22T06:39:11;36.28;;;22.35;;
23470;SDS011;11908;50.806;4.424;2023-11-22T06:41:40;31.50;;;18.60;;
23470;SDS011;11908;50.806;4.424;2023-11-22T06:44:06;35.63;;;22.00;;
23470;SDS011;11908;50.806;4.424;2023-11-22T06:46:32;41.38;;;22.02;;
23470;SDS011;11908;50.806;4.424;2023-11-22T06:48:57;36.58;;;21.75;;
23470;SDS011;11908;50.806;4.424;2023-11-22T06:51:23;34.72;;;22.42;;
23470;SDS011;11908;50.806;4.424;2023-11-22T06:53:49;36.03;;;22.35;;
23470;SDS011;11908;50.806;4.424;2023-11-22T06:56:17;33.28;;;21.95;;
23470;SDS011;11908;50.806;4.424;2023-11-22T06:58:43;31.70;;;20.45;;
23470;SDS011;11908;50.806;4.424;2023-11-22T07:01:08;33.33;;;20.92;;
23470;SDS011;11908;50.806;4.424;2023-11-22T07:03:35;32.72;;;20.90;;
23470;SDS011;11908;50.806;4.424;2023-11-22T07:06:02;33.13;;;20.15;;
23470;SDS011;11908;50.806;4.424;2023-11-22T07:08:29;30.90;;;19.77;;
23470;SDS011;11908;50.806;4.424;2023-11-22T07:10:55;32.83;;;20.05;;
23470;SDS011;11908;50.806;4.424;2023-11-22T07:13:22;30.35;;;19.02;;
23470;SDS011;11908;50.806;4.424;2023-11-22T07:15:48;27.58;;;18.35;;
23470;SDS011;11908;50.806;4.424;2023-11-22T07:18:13;28.92;;;18.38;;
23470;SDS011;11908;50.806;4.424;2023-11-22T07:20:39;31.02;;;19.23;;
23470;SDS011;11908;50.806;4.424;2023-11-22T07:23:05;28.45;;;18.20;;
23470;SDS011;11908;50.806;4.424;2023-11-22T07:25:30;29.80;;;18.45;;
23470;SDS011;11908;50.806;4.424;2023-11-22T07:27:56;27.25;;;18.88;;
23470;SDS011;11908;50.806;4.424;2023-11-22T07:30:23;31.35;;;19.02;;
23470;SDS011;11908;50.806;4.424;2023-11-22T07:32:52;32.08;;;19.98;;
23470;SDS011;11908;50.806;4.424;2023-11-22T07:35:18;31.98;;;20.20;;
23470;SDS011;11908;50.806;4.424;2023-11-22T07:37:47;35.13;;;20.77;;
23470;SDS011;11908;50.806;4.424;2023-11-22T07:40:13;31.73;;;20.23;;
23470;SDS011;11908;50.806;4.424;2023-11-22T07:42:39;29.30;;;19.48;;
23470;SDS011;11908;50.806;4.424;2023-11-22T07:45:06;29.70;;;19.98;;
23470;SDS011;11908;50.806;4.424;2023-11-22T07:47:35;30.80;;;19.92;;
23470;SDS011;11908;50.806;4.424;2023-11-22T07:50:01;32.88;;;19.25;;
23470;SDS011;11908;50.806;4.424;2023-11-22T07:52:28;31.35;;;19.80;;
23470;SDS011;11908;50.806;4.424;2023-11-22T07:54:57;33.33;;;20.52;;
23470;SDS011;11908;50.806;4.424;2023-11-22T07:57:24;35.55;;;19.40;;
23470;SDS011;11908;50.806;4.424;2023-11-22T07:59:50;29.40;;;19.63;;
23470;SDS011;11908;50.806;4.424;2023-11-22T08:02:19;28.27;;;18.70;;
23470;SDS011;11908;50.806;4.424;2023-11-22T08:04:45;30.90;;;18.60;;
23470;SDS011;11908;50.806;4.424;2023-11-22T08:07:13;28.83;;;18.88;;
23470;SDS011;11908;50.806;4.424;2023-11-22T08:09:39;31.30;;;19.75;;
23470;SDS011;11908;50.806;4.424;2023-11-22T08:12:06;28.83;;;18.00;;
23470;SDS011;11908;50.806;4.424;2023-11-22T08:14:32;27.38;;;18.33;;
23470;SDS011;11908;50.806;4.424;2023-11-22T08:16:59;26.27;;;17.38;;
23470;SDS011;11908;50.806;4.424;2023-11-22T08:19:26;27.45;;;18.02;;
23470;SDS011;11908;50.806;4.424;2023-11-22T08:21:52;27.88;;;17.60;;
23470;SDS011;11908;50.806;4.424;2023-11-22T08:24:19;31.73;;;19.70;;
23470;SDS011;11908;50.806;4.424;2023-11-22T08:26:44;27.15;;;17.67;;
23470;SDS011;11908;50.806;4.424;2023-11-22T08:29:11;28.35;;;17.73;;
23470;SDS011;11908;50.806;4.424;2023-11-22T08:31:36;27.05;;;18.10;;
23470;SDS011;11908;50.806;4.424;2023-11-22T08:34:02;28.20;;;18.77;;
23470;SDS011;11908;50.806;4.424;2023-11-22T08:36:31;27.90;;;18.73;;
23470;SDS011;11908;50.806;4.424;2023-11-22T08:38:59;24.17;;;16.65;;
23470;SDS011;11908;50.806;4.424;2023-11-22T08:41:27;24.88;;;17.00;;
23470;SDS011;11908;50.806;4.424;2023-11-22T08:43:55;26.25;;;17.92;;
23470;SDS011;11908;50.806;4.424;2023-11-22T08:46:20;27.85;;;18.50;;
23470;SDS011;11908;50.806;4.424;2023-11-22T08:48:46;25.15;;;17.08;;
23470;SDS011;11908;50.806;4.424;2023-11-22T08:51:12;24.38;;;16.77;;
23470;SDS011;11908;50.806;4.424;2023-11-22T08:53:38;22.70;;;15.60;;
23470;SDS011;11908;50.806;4.424;2023-11-22T08:56:04;26.60;;;18.00;;
23470;SDS011;11908;50.806;4.424;2023-11-22T08:58:31;29.02;;;18.45;;
23470;SDS011;11908;50.806;4.424;2023-11-22T09:00:57;26.23;;;18.15;;
23470;SDS011;11908;50.806;4.424;2023-11-22T09:03:23;28.77;;;17.42;;
23470;SDS011;11908;50.806;4.424;2023-11-22T09:05:49;32.72;;;18.08;;
23470;SDS011;11908;50.806;4.424;2023-11-22T09:08:15;27.52;;;16.90;;
23470;SDS011;11908;50.806;4.424;2023-11-22T09:10:41;25.55;;;16.55;;
23470;SDS011;11908;50.806;4.424;2023-11-22T09:13:10;25.15;;;16.33;;
23470;SDS011;11908;50.806;4.424;2023-11-22T09:15:36;24.95;;;15.90;;
23470;SDS011;11908;50.806;4.424;2023-11-22T09:18:03;24.95;;;16.42;;
23470;SDS011;11908;50.806;4.424;2023-11-22T09:20:29;24.27;;;15.65;;
23470;SDS011;11908;50.806;4.424;2023-11-22T09:22:55;24.38;;;16.38;;
23470;SDS011;11908;50.806;4.424;2023-11-22T09:25:22;24.25;;;15.80;;
23470;SDS011;11908;50.806;4.424;2023-11-22T09:27:50;23.40;;;16.25;;
23470;SDS011;11908;50.806;4.424;2023-11-22T09:30:18;24.45;;;15.95;;
23470;SDS011;11908;50.806;4.424;2023-11-22T09:33:04;25.60;;;17.13;;
23470;SDS011;11908;50.806;4.424;2023-11-22T09:35:31;25.35;;;16.75;;
23470;SDS011;11908;50.806;4.424;2023-11-22T09:38:00;24.55;;;17.13;;
23470;SDS011;11908;50.806;4.424;2023-11-22T09:40:41;26.70;;;17.10;;
23470;SDS011;11908;50.806;4.424;2023-11-22T09:43:08;22.48;;;16.95;;
23470;SDS011;11908;50.806;4.424;2023-11-22T09:45:35;30.92;;;20.23;;
23470;SDS011;11908;50.806;4.424;2023-11-22T09:48:02;21.65;;;14.88;;
23470;SDS011;11908;50.806;4.424;2023-11-22T09:55:58;22.67;;;15.32;;
23470;SDS011;11908;50.806;4.424;2023-11-22T09:58:26;25.83;;;15.98;;
23470;SDS011;11908;50.806;4.424;2023-11-22T10:01:01;24.05;;;15.35;;
23470;SDS011;11908;50.806;4.424;2023-11-22T10:03:28;29.42;;;18.10;;
23470;SDS011;11908;50.806;4.424;2023-11-22T10:05:58;22.13;;;15.27;;
23470;SDS011;11908;50.806;4.424;2023-11-22T10:08:27;21.83;;;15.30;;
23470;SDS011;11908;50.806;4.424;2023-11-22T10:10:57;23.35;;;14.93;;
23470;SDS011;11908;50.806;4.424;2023-11-22T10:13:23;21.65;;;15.70;;
23470;SDS011;11908;50.806;4.424;2023-11-22T10:15:49;24.17;;;15.40;;
23470;SDS011;11908;50.806;4.424;2023-11-22T10:18:16;21.73;;;14.15;;
23470;SDS011;11908;50.806;4.424;2023-11-22T10:20:43;24.17;;;15.32;;
23470;SDS011;11908;50.806;4.424;2023-11-22T10:23:18;22.33;;;14.45;;
23470;SDS011;11908;50.806;4.424;2023-11-22T10:25:50;20.85;;;14.75;;
23470;SDS011;11908;50.806;4.424;2023-11-22T10:28:17;26.83;;;15.35;;
23470;SDS011;11908;50.806;4.424;2023-11-22T10:30:47;23.73;;;15.25;;
23470;SDS011;11908;50.806;4.424;2023-11-22T10:33:14;27.92;;;16.38;;
23470;SDS011;11908;50.806;4.424;2023-11-22T10:38:12;21.48;;;14.25;;
23470;SDS011;11908;50.806;4.424;2023-11-22T10:40:39;30.63;;;15.88;;
23470;SDS011;11908;50.806;4.424;2023-11-22T10:43:06;29.25;;;14.35;;
23470;SDS011;11908;50.806;4.424;2023-11-22T10:45:33;33.95;;;14.90;;
23470;SDS011;11908;50.806;4.424;2023-11-22T10:48:03;40.63;;;16.38;;
23470;SDS011;11908;50.806;4.424;2023-11-22T10:50:28;18.73;;;13.48;;
23470;SDS011;11908;50.806;4.424;2023-11-22T10:52:56;19.05;;;13.48;;
23470;SDS011;11908;50.806;4.424;2023-11-22T10:55:26;19.02;;;13.23;;
23470;SDS011;11908;50.806;4.424;2023-11-22T10:57:54;18.65;;;12.27;;
23470;SDS011;11908;50.806;4.424;2023-11-22T11:00:21;18.35;;;12.90;;
23470;SDS011;11908;50.806;4.424;2023-11-22T11:02:54;16.90;;;11.40;;
23470;SDS011;11908;50.806;4.424;2023-11-22T11:05:30;18.52;;;12.15;;
23470;SDS011;11908;50.806;4.424;2023-11-22T11:08:08;18.63;;;11.63;;
23470;SDS011;11908;50.806;4.424;2023-11-22T11:10:39;24.27;;;13.88;;
23470;SDS011;11908;50.806;4.424;2023-11-22T11:13:08;17.13;;;11.95;;
23470;SDS011;11908;50.806;4.424;2023-11-22T11:15:39;13.77;;;10.32;;
23470;SDS011;11908;50.806;4.424;2023-11-22T11:18:09;17.23;;;9.98;;
23470;SDS011;11908;50.806;4.424;2023-11-22T11:20:52;15.43;;;10.40;;
23470;SDS011;11908;50.806;4.424;2023-11-22T11:23:21;19.92;;;11.20;;
23470;SDS011;11908;50.806;4.424;2023-11-22T11:25:58;25.38;;;13.02;;
23470;SDS011;11908;50.806;4.424;2023-11-22T11:28:43;29.90;;;11.30;;
23470;SDS011;11908;50.806;4.424;2023-11-22T11:31:10;15.60;;;8.77;;
23470;SDS011;11908;50.806;4.424;2023-11-22T11:33:52;13.75;;;9.20;;
23470;SDS011;11908;50.806;4.424;2023-11-22T11:36:23;23.27;;;11.15;;
23470;SDS011;11908;50.806;4.424;2023-11-22T11:38:57;13.20;;;10.05;;
23470;SDS011;11908;50.806;4.424;2023-11-22T11:41:32;12.88;;;10.30;;
23470;SDS011;11908;50.806;4.424;2023-11-22T11:43:58;12.18;;;9.20;;
23470;SDS011;11908;50.806;4.424;2023-11-22T11:46:26;9.75;;;8.75;;
23470;SDS011;11908;50.806;4.424;2023-11-22T11:48:54;14.43;;;9.70;;
23470;SDS011;11908;50.806;4.424;2023-11-22T11:51:21;10.80;;;8.35;;
23470;SDS011;11908;50.806;4.424;2023-11-22T11:53:51;11.10;;;9.60;;
23470;SDS011;11908;50.806;4.424;2023-11-22T11:56:17;15.45;;;10.50;;
23470;SDS011;11908;50.806;4.424;2023-11-22T11:58:43;13.18;;;9.05;;
23470;SDS011;11908;50.806;4.424;2023-11-22T12:01:14;13.98;;;10.02;;
23470;SDS011;11908;50.806;4.424;2023-11-22T12:03:41;12.07;;;9.55;;
23470;SDS011;11908;50.806;4.424;2023-11-22T12:06:08;11.98;;;9.27;;
23470;SDS011;11908;50.806;4.424;2023-11-22T12:08:34;12.13;;;9.25;;
23470;SDS011;11908;50.806;4.424;2023-11-22T12:11:03;14.13;;;9.57;;
23470;SDS011;11908;50.806;4.424;2023-11-22T12:13:30;10.88;;;8.98;;
23470;SDS011;11908;50.806;4.424;2023-11-22T12:15:56;11.20;;;9.60;;
23470;SDS011;11908;50.806;4.424;2023-11-22T12:18:22;10.02;;;8.95;;
23470;SDS011;11908;50.806;4.424;2023-11-22T12:20:58;15.68;;;9.00;;
23470;SDS011;11908;50.806;4.424;2023-11-22T12:23:25;14.43;;;9.70;;
23470;SDS011;11908;50.806;4.424;2023-11-22T12:25:58;16.70;;;10.13;;
23470;SDS011;11908;50.806;4.424;2023-11-22T12:28:27;15.40;;;9.95;;
23470;SDS011;11908;50.806;4.424;2023-11-22T12:30:53;18.75;;;10.50;;
23470;SDS011;11908;50.806;4.424;2023-11-22T12:33:19;16.67;;;10.27;;
23470;SDS011;11908;50.806;4.424;2023-11-22T12:35:45;16.90;;;10.18;;
23470;SDS011;11908;50.806;4.424;2023-11-22T12:38:12;17.13;;;11.35;;
23470;SDS011;11908;50.806;4.424;2023-11-22T12:40:42;18.35;;;11.55;;
23470;SDS011;11908;50.806;4.424;2023-11-22T12:43:09;15.73;;;11.63;;
23470;SDS011;11908;50.806;4.424;2023-11-22T12:45:39;16.60;;;11.32;;
23470;SDS011;11908;50.806;4.424;2023-11-22T12:48:21;16.20;;;11.13;;
23470;SDS011;11908;50.806;4.424;2023-11-22T12:50:49;14.30;;;10.87;;
23470;SDS011;11908;50.806;4.424;2023-11-22T12:53:16;18.33;;;11.68;;
23470;SDS011;11908;50.806;4.424;2023-11-22T12:55:42;14.57;;;10.75;;
23470;SDS011;11908;50.806;4.424;2023-11-22T12:58:16;17.30;;;12.38;;
23470;SDS011;11908;50.806;4.424;2023-11-22T13:00:46;16.48;;;11.57;;
23470;SDS011;11908;50.806;4.424;2023-11-22T13:03:12;19.63;;;12.07;;
23470;SDS011;11908;50.806;4.424;2023-11-22T13:05:39;17.75;;;13.32;;
23470;SDS011;11908;50.806;4.424;2023-11-22T13:08:09;19.13;;;12.30;;
23470;SDS011;11908;50.806;4.424;2023-11-22T13:10:38;18.15;;;12.98;;
23470;SDS011;11908;50.806;4.424;2023-11-22T13:13:19;19.52;;;13.43;;
23470;SDS011;11908;50.806;4.424;2023-11-22T13:15:48;20.77;;;13.32;;
23470;SDS011;11908;50.806;4.424;2023-11-22T13:18:17;17.55;;;12.73;;
23470;SDS011;11908;50.806;4.424;2023-11-22T13:20:43;17.35;;;12.35;;
23470;SDS011;11908;50.806;4.424;2023-11-22T13:23:09;19.77;;;12.88;;
23470;SDS011;11908;50.806;4.424;2023-11-22T13:25:35;20.58;;;14.30;;
23470;SDS011;11908;50.806;4.424;2023-11-22T13:28:01;19.10;;;13.55;;
23470;SDS011;11908;50.806;4.424;2023-11-22T13:30:29;19.70;;;13.18;;
23470;SDS011;11908;50.806;4.424;2023-11-22T13:32:55;19.92;;;13.65;;
23470;SDS011;11908;50.806;4.424;2023-11-22T13:35:22;20.60;;;14.30;;
23470;SDS011;11908;50.806;4.424;2023-11-22T13:37:55;26.63;;;14.75;;
23470;SDS011;11908;50.806;4.424;2023-11-22T13:40:26;21.90;;;14.23;;
23470;SDS011;11908;50.806;4.424;2023-11-22T13:42:55;19.10;;;14.05;;
23470;SDS011;11908;50.806;4.424;2023-11-22T13:45:21;21.23;;;14.27;;
23470;SDS011;11908;50.806;4.424;2023-11-22T13:47:48;21.83;;;14.48;;
23470;SDS011;11908;50.806;4.424;2023-11-22T13:50:20;20.05;;;14.73;;
23470;SDS011;11908;50.806;4.424;2023-11-22T13:52:51;24.17;;;14.93;;
23470;SDS011;11908;50.806;4.424;2023-11-22T13:55:18;45.28;;;15.80;;
23470;SDS011;11908;50.806;4.424;2023-11-22T13:57:54;26.70;;;15.07;;
23470;SDS011;11908;50.806;4.424;2023-11-22T14:00:25;22.63;;;14.43;;
23470;SDS011;11908;50.806;4.424;2023-11-22T14:02:55;23.80;;;14.23;;
23470;SDS011;11908;50.806;4.424;2023-11-22T14:05:24;22.75;;;13.80;;
23470;SDS011;11908;50.806;4.424;2023-11-22T14:07:51;24.70;;;14.27;;
23470;SDS011;11908;50.806;4.424;2023-11-22T14:10:19;21.38;;;13.80;;
23470;SDS011;11908;50.806;4.424;2023-11-22T14:12:47;26.70;;;14.27;;
23470;SDS011;11908;50.806;4.424;2023-11-22T14:15:14;19.40;;;14.05;;
23470;SDS011;11908;50.806;4.424;2023-11-22T14:17:40;20.27;;;13.70;;
23470;SDS011;11908;50.806;4.424;2023-11-22T14:20:06;23.27;;;13.40;;
23470;SDS011;11908;50.806;4.424;2023-11-22T14:22:35;21.30;;;12.57;;
23470;SDS011;11908;50.806;4.424;2023-11-22T14:25:01;22.95;;;13.93;;
23470;SDS011;11908;50.806;4.424;2023-11-22T14:27:28;24.23;;;14.63;;
23470;SDS011;11908;50.806;4.424;2023-11-22T14:29:55;23.05;;;13.77;;
23470;SDS011;11908;50.806;4.424;2023-11-22T14:32:21;22.13;;;12.70;;
23470;SDS011;11908;50.806;4.424;2023-11-22T14:34:48;22.65;;;13.90;;